Terminal Aerodrome Forecast
Issued by NWS Atlanta, GA

Home | Current Version | Previous Version | Text Only | Print | Product List | Glossary On
Versions: 1 2 3 4 5 6 7 8 9 10 11 12 13 14 15 16 17 18 19 20 21 22 23 24 25 26 27 28 29 30 31 32 33 34 35 36 37
000
FTUS42 KFFC 052334
TAFAHN
TAF
KAHN 052334Z 0600/0624 22006KT P6SM FEW050 SCT100
     FM060200 25005KT P6SM SCT100 BKN250
     FM060800 23004KT 6SM BR BKN012
     FM061000 VRB03KT 3SM BR BKN007
     FM061400 25005KT P6SM SCT007 BKN012
     FM061700 24005KT P6SM BKN040 PROB30 0619/0623 5SM TSRA
      BKN025CB=

USA.gov is the U.S. government's official web portal to all federal, state and local government web resources and services.